Time,TemperatureF,DewpointF,PressureIn,WindDirection,WindDirectionDegrees,WindSpeedMPH,WindSpeedGustMPH,Humidity,HourlyPrecipIn,Conditions,Clouds,dailyrainin,SoftwareType,DateUTC
2013-11-11 00:00:00,67.0,-99.9,30.22,North,360,9.0,10.0,-999,-99.99,,,-99.99,,2013-11-11 06:00:00,
2013-11-11 00:42:00,67.0,-99.9,30.22,North,360,9.0,10.0,-999,-99.99,,,-99.99,,2013-11-11 06:42:00,
2013-11-11 00:52:00,67.0,-99.9,30.22,North,360,9.0,10.0,-999,-99.99,,,-99.99,,2013-11-11 06:52:00,
2013-11-11 01:00:00,67.0,-99.9,30.20,North,10,11.0,13.0,-999,-99.99,,,-99.99,,2013-11-11 07:00:00,
2013-11-11 01:22:00,67.0,-99.9,30.20,North,10,11.0,13.0,-999,-99.99,,,-99.99,,2013-11-11 07:22:00,
2013-11-11 01:32:00,67.0,-99.9,30.20,North,10,11.0,13.0,-999,-99.99,,,-99.99,,2013-11-11 07:32:00,
2013-11-11 01:43:00,67.0,-99.9,30.20,North,10,11.0,13.0,-999,-99.99,,,-99.99,,2013-11-11 07:43:00,
2013-11-11 01:52:00,67.0,-99.9,30.20,North,10,11.0,13.0,-999,-99.99,,,-99.99,,2013-11-11 07:52:00,
2013-11-11 02:00:00,67.0,-99.9,30.19,NNE,20,14.0,15.0,-999,-99.99,,,-99.99,,2013-11-11 08:00:00,
2013-11-11 02:42:00,67.0,-99.9,30.19,NNE,20,14.0,15.0,-999,-99.99,,,-99.99,,2013-11-11 08:42:00,
2013-11-11 02:52:00,67.0,-99.9,30.19,NNE,20,14.0,15.0,-999,-99.99,,,-99.99,,2013-11-11 08:52:00,
2013-11-11 03:00:00,66.0,-99.9,30.19,North,10,14.0,15.0,-999,-99.99,,,-99.99,,2013-11-11 09:00:00,
2013-11-11 03:22:00,66.0,-99.9,30.19,North,10,14.0,15.0,-999,-99.99,,,-99.99,,2013-11-11 09:22:00,
2013-11-11 03:33:00,66.0,-99.9,30.19,North,10,14.0,15.0,-999,-99.99,,,-99.99,,2013-11-11 09:33:00,
2013-11-11 03:43:00,66.0,-99.9,30.19,North,10,14.0,15.0,-999,-99.99,,,-99.99,,2013-11-11 09:43:00,
2013-11-11 03:54:00,66.0,-99.9,30.19,North,10,14.0,15.0,-999,-99.99,,,-99.99,,2013-11-11 09:54:00,
2013-11-11 04:00:00,66.0,-99.9,30.18,North,360,11.0,14.0,-999,-99.99,,,-99.99,,2013-11-11 10:00:00,
2013-11-11 04:23:00,66.0,-99.9,30.18,North,360,11.0,14.0,-999,-99.99,,,-99.99,,2013-11-11 10:23:00,
2013-11-11 04:33:00,66.0,-99.9,30.18,North,360,11.0,14.0,-999,-99.99,,,-99.99,,2013-11-11 10:33:00,
2013-11-11 04:42:00,66.0,-99.9,30.18,North,360,11.0,14.0,-999,-99.99,,,-99.99,,2013-11-11 10:42:00,
2013-11-11 04:53:00,66.0,-99.9,30.18,North,360,11.0,14.0,-999,-99.99,,,-99.99,,2013-11-11 10:53:00,
2013-11-11 05:00:00,66.0,-99.9,30.17,North,10,15.0,16.0,-999,-99.99,,,-99.99,,2013-11-11 11:00:00,
2013-11-11 05:42:00,66.0,-99.9,30.17,North,10,15.0,16.0,-999,-99.99,,,-99.99,,2013-11-11 11:42:00,
2013-11-11 05:52:00,66.0,-99.9,30.17,North,10,15.0,16.0,-999,-99.99,,,-99.99,,2013-11-11 11:52:00,
2013-11-11 06:00:00,67.0,-99.9,30.18,NNE,30,16.0,17.0,-999,-99.99,,,-99.99,,2013-11-11 12:00:00,
2013-11-11 06:42:00,67.0,-99.9,30.18,NNE,30,16.0,17.0,-999,-99.99,,,-99.99,,2013-11-11 12:42:00,
2013-11-11 06:52:00,67.0,-99.9,30.18,NNE,30,16.0,17.0,-999,-99.99,,,-99.99,,2013-11-11 12:52:00,
2013-11-11 07:00:00,65.0,-99.9,30.20,North,350,8.0,9.0,-999,-99.99,,,-99.99,,2013-11-11 13:00:00,
2013-11-11 07:22:00,65.0,-99.9,30.20,North,350,8.0,9.0,-999,-99.99,,,-99.99,,2013-11-11 13:22:00,
2013-11-11 07:32:00,65.0,-99.9,30.20,North,350,8.0,9.0,-999,-99.99,,,-99.99,,2013-11-11 13:32:00,
2013-11-11 07:42:00,65.0,-99.9,30.20,North,350,8.0,9.0,-999,-99.99,,,-99.99,,2013-11-11 13:42:00,
2013-11-11 07:52:00,65.0,-99.9,30.20,North,350,8.0,9.0,-999,-99.99,,,-99.99,,2013-11-11 13:52:00,
2013-11-11 08:00:00,65.0,-99.9,30.22,North,360,10.0,11.0,-999,-99.99,,,-99.99,,2013-11-11 14:00:00,
2013-11-11 08:22:00,65.0,-99.9,30.22,North,360,10.0,11.0,-999,-99.99,,,-99.99,,2013-11-11 14:22:00,
2013-11-11 08:32:00,65.0,-99.9,30.22,North,360,10.0,11.0,-999,-99.99,,,-99.99,,2013-11-11 14:32:00,
2013-11-11 08:42:00,65.0,-99.9,30.22,North,360,10.0,11.0,-999,-99.99,,,-99.99,,2013-11-11 14:42:00,
2013-11-11 08:52:00,65.0,-99.9,30.22,North,360,10.0,11.0,-999,-99.99,,,-99.99,,2013-11-11 14:52:00,
2013-11-11 09:00:00,67.0,-99.9,30.23,North,10,13.0,14.0,-999,-99.99,,,-99.99,,2013-11-11 15:00:00,
2013-11-11 09:22:00,67.0,-99.9,30.23,North,10,13.0,14.0,-999,-99.99,,,-99.99,,2013-11-11 15:22:00,
2013-11-11 09:33:00,67.0,-99.9,30.23,North,10,13.0,14.0,-999,-99.99,,,-99.99,,2013-11-11 15:33:00,
2013-11-11 09:44:00,67.0,-99.9,30.23,North,10,13.0,14.0,-999,-99.99,,,-99.99,,2013-11-11 15:44:00,
2013-11-11 09:53:00,67.0,-99.9,30.23,North,10,13.0,14.0,-999,-99.99,,,-99.99,,2013-11-11 15:53:00,
2013-11-11 10:00:00,68.0,-99.9,30.24,NNE,20,10.0,11.0,-999,-99.99,,,-99.99,,2013-11-11 16:00:00,
2013-11-11 10:42:00,68.0,-99.9,30.24,NNE,20,10.0,11.0,-999,-99.99,,,-99.99,,2013-11-11 16:42:00,
2013-11-11 10:53:00,68.0,-99.9,30.24,NNE,20,10.0,11.0,-999,-99.99,,,-99.99,,2013-11-11 16:53:00,
2013-11-11 11:00:00,68.0,-99.9,30.23,NNE,30,13.0,14.0,-999,-99.99,,,-99.99,,2013-11-11 17:00:00,
2013-11-11 11:43:00,68.0,-99.9,30.23,NNE,30,13.0,14.0,-999,-99.99,,,-99.99,,2013-11-11 17:43:00,
2013-11-11 11:52:00,68.0,-99.9,30.23,NNE,30,13.0,14.0,-999,-99.99,,,-99.99,,2013-11-11 17:52:00,
2013-11-11 12:00:00,69.0,-99.9,30.22,NNE,30,14.0,15.0,-999,-99.99,,,-99.99,,2013-11-11 18:00:00,
2013-11-11 12:42:00,69.0,-99.9,30.22,NNE,30,14.0,15.0,-999,-99.99,,,-99.99,,2013-11-11 18:42:00,
2013-11-11 12:52:00,69.0,-99.9,30.22,NNE,30,14.0,15.0,-999,-99.99,,,-99.99,,2013-11-11 18:52:00,
2013-11-11 13:00:00,69.0,-99.9,30.18,NE,40,11.0,13.0,-999,-99.99,,,-99.99,,2013-11-11 19:00:00,
2013-11-11 13:22:00,69.0,-99.9,30.18,NE,40,11.0,13.0,-999,-99.99,,,-99.99,,2013-11-11 19:22:00,
2013-11-11 13:32:00,69.0,-99.9,30.18,NE,40,11.0,13.0,-999,-99.99,,,-99.99,,2013-11-11 19:32:00,
2013-11-11 13:42:00,69.0,-99.9,30.18,NE,40,11.0,13.0,-999,-99.99,,,-99.99,,2013-11-11 19:42:00,
2013-11-11 13:53:00,69.0,-99.9,30.18,NE,40,11.0,13.0,-999,-99.99,,,-99.99,,2013-11-11 19:53:00,
2013-11-11 14:00:00,69.0,-99.9,30.16,NE,50,13.0,14.0,-999,-99.99,,,-99.99,,2013-11-11 20:00:00,
2013-11-11 14:42:00,69.0,-99.9,30.16,NE,50,13.0,14.0,-999,-99.99,,,-99.99,,2013-11-11 20:42:00,
2013-11-11 14:52:00,69.0,-99.9,30.16,NE,50,13.0,14.0,-999,-99.99,,,-99.99,,2013-11-11 20:52:00,
2013-11-11 15:00:00,70.0,-99.9,30.15,NE,50,13.0,14.0,-999,-99.99,,,-99.99,,2013-11-11 21:00:00,
2013-11-11 15:43:00,70.0,-99.9,30.15,NE,50,13.0,14.0,-999,-99.99,,,-99.99,,2013-11-11 21:43:00,
2013-11-11 15:55:00,70.0,-99.9,30.15,NE,50,13.0,14.0,-999,-99.99,,,-99.99,,2013-11-11 21:55:00,
2013-11-11 16:00:00,70.0,-99.9,30.14,ENE,70,14.0,16.0,-999,-99.99,,,-99.99,,2013-11-11 22:00:00,
2013-11-11 16:43:00,70.0,-99.9,30.14,ENE,70,14.0,16.0,-999,-99.99,,,-99.99,,2013-11-11 22:43:00,
2013-11-11 16:53:00,70.0,-99.9,30.14,ENE,70,14.0,16.0,-999,-99.99,,,-99.99,,2013-11-11 22:53:00,
2013-11-11 17:00:00,71.0,-99.9,30.15,ENE,70,14.0,15.0,-999,-99.99,,,-99.99,,2013-11-11 23:00:00,
2013-11-11 17:43:00,71.0,-99.9,30.15,ENE,70,14.0,15.0,-999,-99.99,,,-99.99,,2013-11-11 23:43:00,
2013-11-11 17:53:00,71.0,-99.9,30.15,ENE,70,14.0,15.0,-999,-99.99,,,-99.99,,2013-11-11 23:53:00,
2013-11-11 18:00:00,71.0,-99.9,30.15,ENE,70,14.0,15.0,-999,-99.99,,,-99.99,,2013-11-12 00:00:00,
2013-11-11 18:22:00,71.0,-99.9,30.15,ENE,70,14.0,15.0,-999,-99.99,,,-99.99,,2013-11-12 00:22:00,
2013-11-11 18:32:00,71.0,-99.9,30.15,ENE,70,14.0,15.0,-999,-99.99,,,-99.99,,2013-11-12 00:32:00,
2013-11-11 18:42:00,71.0,-99.9,30.15,ENE,70,14.0,15.0,-999,-99.99,,,-99.99,,2013-11-12 00:42:00,
2013-11-11 18:52:00,71.0,-99.9,30.15,ENE,70,14.0,15.0,-999,-99.99,,,-99.99,,2013-11-12 00:52:00,
2013-11-11 19:00:00,71.0,-99.9,30.16,ENE,60,14.0,15.0,-999,-99.99,,,-99.99,,2013-11-12 01:00:00,
2013-11-11 19:42:00,71.0,-99.9,30.16,ENE,60,14.0,15.0,-999,-99.99,,,-99.99,,2013-11-12 01:42:00,
2013-11-11 19:52:00,71.0,-99.9,30.16,ENE,60,14.0,15.0,-999,-99.99,,,-99.99,,2013-11-12 01:52:00,
2013-11-11 20:00:00,71.0,-99.9,30.18,NE,50,11.0,13.0,-999,-99.99,,,-99.99,,2013-11-12 02:00:00,
2013-11-11 20:42:00,71.0,-99.9,30.18,NE,50,11.0,13.0,-999,-99.99,,,-99.99,,2013-11-12 02:42:00,
2013-11-11 20:52:00,71.0,-99.9,30.18,NE,50,11.0,13.0,-999,-99.99,,,-99.99,,2013-11-12 02:52:00,
2013-11-11 21:00:00,71.0,-99.9,30.19,NE,50,10.0,11.0,-999,-99.99,,,-99.99,,2013-11-12 03:00:00,
2013-11-11 21:22:00,71.0,-99.9,30.19,NE,50,10.0,11.0,-999,-99.99,,,-99.99,,2013-11-12 03:22:00,
2013-11-11 21:34:00,71.0,-99.9,30.19,NE,50,10.0,11.0,-999,-99.99,,,-99.99,,2013-11-12 03:34:00,
2013-11-11 21:45:00,71.0,-99.9,30.19,NE,50,10.0,11.0,-999,-99.99,,,-99.99,,2013-11-12 03:45:00,
2013-11-11 21:54:00,71.0,-99.9,30.19,NE,50,10.0,11.0,-999,-99.99,,,-99.99,,2013-11-12 03:54:00,
2013-11-11 22:00:00,71.0,-99.9,30.20,NE,50,8.0,8.0,-999,-99.99,,,-99.99,,2013-11-12 04:00:00,
2013-11-11 22:44:00,71.0,-99.9,30.20,NE,50,8.0,8.0,-999,-99.99,,,-99.99,,2013-11-12 04:44:00,
2013-11-11 22:53:00,71.0,-99.9,30.20,NE,50,8.0,8.0,-999,-99.99,,,-99.99,,2013-11-12 04:53:00,
2013-11-11 23:00:00,71.0,-99.9,30.20,NE,40,7.0,8.0,-999,-99.99,,,-99.99,,2013-11-12 05:00:00,
2013-11-11 23:44:00,71.0,-99.9,30.20,NE,40,7.0,8.0,-999,-99.99,,,-99.99,,2013-11-12 05:44:00,
2013-11-11 23:54:00,71.0,-99.9,30.20,NE,40,7.0,8.0,-999,-99.99,,,-99.99,,2013-11-12 05:54:00,